Time;durP1;ratioP1;P1;durP2;ratioP2;P2;SDS_P1;SDS_P2;PMS_P1;PMS_P2;Temp;Humidity;BMP_temperature;BMP_pressure;BME280_temperature;BME280_humidity;BME280_pressure;Samples;Min_cycle;Max_cycle;Signal;HPM_P1;HPM_P2
2022/10/11 00:01:48;;;;;;;24.95;19.02;;;;;;;9.69;100.00;99895.41;5094269;28;20059;-81
2022/10/11 00:04:13;;;;;;;23.60;17.15;;;;;;;9.66;100.00;99895.56;5093093;28;20019;-81
2022/10/11 00:06:42;;;;;;;21.42;17.98;;;;;;;9.68;100.00;99897.16;5094092;28;20462;-82
2022/10/11 00:09:10;;;;;;;20.42;16.77;;;;;;;9.62;100.00;99904.38;5092881;28;20027;-81
2022/10/11 00:11:36;;;;;;;21.67;17.05;;;;;;;9.56;100.00;99895.03;5094021;28;20115;-81
2022/10/11 00:14:02;;;;;;;23.23;16.92;;;;;;;9.59;100.00;99894.94;5094297;28;20035;-81
2022/10/11 00:16:27;;;;;;;18.88;15.30;;;;;;;9.56;100.00;99894.19;5093751;28;20019;-81
2022/10/11 00:18:52;;;;;;;18.73;16.52;;;;;;;9.51;100.00;99909.97;5093993;28;20434;-81
2022/10/11 00:21:19;;;;;;;19.98;16.55;;;;;;;9.51;100.00;99917.78;5093924;28;20016;-82
2022/10/11 00:23:45;;;;;;;21.33;16.60;;;;;;;9.47;100.00;99911.84;5093576;28;20093;-82
2022/10/11 00:26:11;;;;;;;19.25;16.27;;;;;;;9.44;100.00;99908.53;5094181;28;20028;-81
2022/10/11 00:28:37;;;;;;;19.50;16.08;;;;;;;9.41;100.00;99916.44;5093770;28;20024;-81
2022/10/11 00:31:06;;;;;;;21.17;16.92;;;;;;;9.31;100.00;99917.66;5092501;28;20116;-81
2022/10/11 00:33:32;;;;;;;22.98;16.58;;;;;;;9.30;100.00;99914.22;5093917;28;20031;-82
2022/10/11 00:35:59;;;;;;;20.45;15.90;;;;;;;9.32;100.00;99924.59;5093778;28;20020;-81
2022/10/11 00:38:24;;;;;;;17.77;15.65;;;;;;;9.23;100.00;99920.56;5093884;28;20027;-81
2022/10/11 00:40:50;;;;;;;21.23;16.08;;;;;;;9.25;100.00;99931.75;5093514;28;20020;-81
2022/10/11 00:43:20;;;;;;;24.00;16.55;;;;;;;9.15;100.00;99907.84;5093469;28;20107;-81
2022/10/11 00:45:55;;;;;;;18.25;15.60;;;;;;;9.21;100.00;99933.59;5093329;28;20028;-81
2022/10/11 00:48:28;;;;;;;22.58;16.17;;;;;;;9.17;100.00;99936.38;5092120;28;20024;-82
2022/10/11 00:50:57;;;;;;;18.80;16.15;;;;;;;9.09;100.00;99917.63;5093980;28;20044;-82
2022/10/11 00:53:23;;;;;;;19.52;15.85;;;;;;;9.13;100.00;99927.84;5093577;28;20047;-81
2022/10/11 00:55:52;;;;;;;20.35;16.17;;;;;;;9.17;100.00;99928.59;5093277;28;20266;-81
2022/10/11 00:58:20;;;;;;;19.42;15.82;;;;;;;9.08;100.00;99914.19;5093220;28;20088;-82
2022/10/11 01:00:46;;;;;;;22.58;15.70;;;;;;;9.05;100.00;99911.69;5093015;28;20059;-81
2022/10/11 01:03:11;;;;;;;19.67;16.30;;;;;;;9.16;100.00;99924.28;5093092;28;20043;-81
2022/10/11 01:05:38;;;;;;;20.95;16.50;;;;;;;9.12;100.00;99931.34;5092940;28;20020;-82
2022/10/11 01:08:06;;;;;;;27.67;15.32;;;;;;;9.11;100.00;99939.22;5093246;28;20031;-81
2022/10/11 01:10:32;;;;;;;17.33;15.15;;;;;;;9.09;100.00;99941.84;5091932;28;20062;-81
2022/10/11 01:13:12;;;;;;;20.83;16.55;;;;;;;9.07;100.00;99938.47;5093262;28;20454;-81
2022/10/11 01:15:49;;;;;;;18.73;15.68;;;;;;;9.00;100.00;99935.22;5092694;28;20020;-81
2022/10/11 01:18:31;;;;;;;20.13;14.55;;;;;;;8.98;100.00;99939.66;5093004;28;20027;-81
2022/10/11 01:21:08;;;;;;;18.38;14.90;;;;;;;8.97;100.00;99943.16;5093318;28;20016;-81
2022/10/11 01:23:55;;;;;;;20.10;15.50;;;;;;;8.95;100.00;99950.13;5092697;28;20103;-81
2022/10/11 01:26:29;;;;;;;16.65;14.15;;;;;;;8.94;100.00;99950.19;5092731;28;20020;-81
2022/10/11 01:29:19;;;;;;;20.88;15.10;;;;;;;8.86;100.00;99947.03;5092867;28;20032;-81
2022/10/11 01:31:57;;;;;;;20.73;14.50;;;;;;;8.86;100.00;99952.22;5092612;28;20119;-81
2022/10/11 01:34:30;;;;;;;17.48;14.68;;;;;;;8.73;100.00;99944.84;5092682;28;20474;-81
2022/10/11 01:37:33;;;;;;;20.00;14.65;;;;;;;8.81;100.00;99954.97;5092245;28;20529;-81
2022/10/11 01:40:06;;;;;;;18.05;14.68;;;;;;;8.72;100.00;99950.06;5010252;28;20085;-81
2022/10/11 01:42:35;;;;;;;17.08;14.35;;;;;;;8.71;100.00;99957.03;5009917;28;20037;-81
2022/10/11 01:45:00;;;;;;;20.10;14.60;;;;;;;8.69;100.00;99964.03;4993826;28;20029;-81
2022/10/11 01:47:26;;;;;;;20.92;14.60;;;;;;;8.62;100.00;99954.75;5010296;28;20036;-81
2022/10/11 01:49:57;;;;;;;16.20;13.93;;;;;;;8.60;100.00;99953.97;5009999;28;20050;-81
2022/10/11 01:52:23;;;;;;;18.23;14.45;;;;;;;8.63;100.00;99965.97;5010159;28;20037;-81
2022/10/11 01:54:49;;;;;;;17.58;13.23;;;;;;;8.63;100.00;99965.97;5009793;28;20033;-81
2022/10/11 01:57:35;;;;;;;20.10;15.35;;;;;;;8.61;100.00;99972.97;5009829;28;20044;-81
2022/10/11 02:00:21;;;;;;;25.35;14.95;;;;;;;8.54;100.00;99963.69;5010260;28;20034;-81
2022/10/11 02:02:55;;;;;;;21.25;15.93;;;;;;;8.63;100.00;99976.34;5009791;28;20044;-81
2022/10/11 02:05:29;;;;;;;20.33;15.23;;;;;;;8.60;100.00;99966.09;5009971;28;20367;-81
2022/10/11 02:07:57;;;;;;;19.25;14.85;;;;;;;8.66;100.00;99976.25;5009413;28;20053;-81
2022/10/11 02:10:31;;;;;;;17.77;14.57;;;;;;;8.75;100.00;99978.53;4993362;28;20029;-81
2022/10/11 02:13:06;;;;;;;21.08;15.02;;;;;;;8.72;100.00;99969.13;5009517;28;20030;-81
2022/10/11 02:15:34;;;;;;;16.42;12.57;;;;;;;8.87;100.00;99974.69;5049520;28;20086;-81
2022/10/11 02:18:04;;;;;;;18.10;12.80;;;;;;;9.00;100.00;99988.94;5090644;28;20024;-81
2022/10/11 02:20:33;;;;;;;16.70;11.10;;;;;;;9.02;100.00;99971.56;5092997;28;20471;-81
2022/10/11 02:23:07;;;;;;;16.60;10.70;;;;;;;9.21;100.00;99988.19;5098884;28;20073;-81
2022/10/11 02:25:35;;;;;;;14.13;9.80;;;;;;;9.25;100.00;99978.53;5098773;28;20065;-81
2022/10/11 02:28:06;;;;;;;16.25;11.38;;;;;;;9.45;100.00;99996.88;5098793;28;20035;-81
2022/10/11 02:30:33;;;;;;;18.63;11.10;;;;;;;9.54;100.00;99989.63;5098897;28;20194;-81
2022/10/11 02:33:03;;;;;;;14.13;9.40;;;;;;;9.54;100.00;99981.84;5098643;28;20024;-81
2022/10/11 02:35:38;;;;;;;14.30;9.82;;;;;;;9.61;100.00;99984.16;5098829;28;20019;-81
2022/10/11 02:38:13;;;;;;;14.38;9.82;;;;;;;9.74;100.00;100001.00;5098644;28;20050;-81
2022/10/11 02:40:43;;;;;;;11.93;9.23;;;;;;;9.75;100.00;100002.69;5098344;28;20020;-82
2022/10/11 02:43:18;;;;;;;16.20;10.23;;;;;;;9.85;100.00;100004.94;5098603;28;20573;-81
2022/10/11 02:45:51;;;;;;;16.05;10.40;;;;;;;9.86;100.00;100010.09;5098410;28;20023;-81
2022/10/11 02:48:17;;;;;;;16.45;9.65;;;;;;;9.80;100.00;100001.66;5098479;28;20023;-81
2022/10/11 02:50:43;;;;;;;12.85;9.75;;;;;;;9.91;100.00;100013.34;5098425;28;20043;-82
2022/10/11 02:53:08;;;;;;;14.98;9.45;;;;;;;9.95;100.00;100024.50;5098495;28;20027;-82
2022/10/11 02:55:34;;;;;;;16.65;10.20;;;;;;;9.89;100.00;100009.09;5098418;28;20028;-81
2022/10/11 02:57:59;;;;;;;17.02;9.43;;;;;;;9.90;100.00;100016.00;5098040;28;20024;-82
2022/10/11 03:00:25;;;;;;;12.77;9.68;;;;;;;9.92;100.00;100024.63;5098556;28;20526;-82
2022/10/11 03:02:50;;;;;;;16.08;10.23;;;;;;;9.86;100.00;100020.50;5098362;28;20470;-81
2022/10/11 03:05:16;;;;;;;12.98;9.88;;;;;;;9.79;100.00;100025.97;5098758;28;20027;-81
2022/10/11 03:07:41;;;;;;;15.38;10.25;;;;;;;9.78;100.00;100026.91;5097998;28;20067;-81
2022/10/11 03:10:07;;;;;;;13.82;9.48;;;;;;;9.70;100.00;100022.81;5096995;28;20016;-81
2022/10/11 03:12:33;;;;;;;15.25;9.38;;;;;;;9.67;100.00;100033.31;5098294;28;20101;-82
2022/10/11 03:14:58;;;;;;;12.55;9.85;;;;;;;9.59;100.00;100027.56;5098255;28;20483;-81
2022/10/11 03:17:24;;;;;;;21.17;10.18;;;;;;;9.59;100.00;100048.34;5098510;28;20103;-81
2022/10/11 03:19:49;;;;;;;16.17;10.32;;;;;;;9.50;100.00;100049.53;5098130;28;20025;-82
2022/10/11 03:22:16;;;;;;;14.48;9.65;;;;;;;9.42;100.00;100038.56;5098326;28;20047;-82
2022/10/11 03:24:41;;;;;;;15.75;10.43;;;;;;;9.48;100.00;100060.88;5098180;28;20028;-81
2022/10/11 03:27:06;;;;;;;13.77;8.85;;;;;;;9.49;100.00;100066.06;5098082;28;20466;-81
2022/10/11 03:29:32;;;;;;;11.55;8.90;;;;;;;9.46;100.00;100057.50;5098589;28;20459;-81
2022/10/11 03:31:58;;;;;;;16.83;10.13;;;;;;;9.49;100.00;100067.81;5095915;28;20421;-82
2022/10/11 03:34:23;;;;;;;12.50;9.60;;;;;;;9.53;100.00;100072.00;5094295;28;20024;-81
2022/10/11 03:36:48;;;;;;;13.70;9.23;;;;;;;9.56;100.00;100079.66;5094567;28;20067;-81
2022/10/11 03:39:14;;;;;;;14.73;9.32;;;;;;;9.53;100.00;100060.75;5094903;28;20016;-81
2022/10/11 03:41:39;;;;;;;12.60;10.15;;;;;;;9.56;100.00;100065.81;5094544;28;20107;-81
2022/10/11 03:44:05;;;;;;;15.40;9.88;;;;;;;9.69;100.00;100085.28;5094671;28;20103;-82
2022/10/11 03:46:30;;;;;;;16.15;9.55;;;;;;;9.75;100.00;100092.88;5095140;28;20108;-81
2022/10/11 03:48:55;;;;;;;15.15;9.77;;;;;;;9.86;100.00;100100.28;5093124;28;20016;-81
2022/10/11 03:51:21;;;;;;;13.35;9.98;;;;;;;9.88;100.00;100094.13;5093561;28;20062;-81
2022/10/11 03:53:46;;;;;;;15.30;10.13;;;;;;;9.94;100.00;100098.25;5094340;28;20027;-81
2022/10/11 03:56:12;;;;;;;16.23;10.30;;;;;;;10.02;100.00;100116.19;5094470;28;20055;-82
2022/10/11 03:58:37;;;;;;;13.52;9.73;;;;;;;10.02;100.00;100114.41;5094630;28;20024;-81
2022/10/11 04:01:02;;;;;;;16.42;10.13;;;;;;;10.04;100.00;100117.00;5094343;28;20031;-81
2022/10/11 04:03:28;;;;;;;19.13;9.38;;;;;;;10.03;100.00;100113.53;5094553;28;20048;-81
2022/10/11 04:05:54;;;;;;;16.58;9.77;;;;;;;10.04;100.00;100112.63;5094192;28;20094;-81
2022/10/11 04:08:19;;;;;;;15.80;9.65;;;;;;;10.01;100.00;100112.72;5094414;28;20055;-82
2022/10/11 04:10:44;;;;;;;14.40;9.90;;;;;;;9.98;100.00;100120.66;5093937;28;20103;-81
2022/10/11 04:13:10;;;;;;;12.23;9.23;;;;;;;9.95;100.00;100124.22;5093008;28;20021;-81
2022/10/11 04:15:37;;;;;;;17.02;9.35;;;;;;;9.89;100.00;100111.41;5094390;28;20038;-82
2022/10/11 04:18:03;;;;;;;14.25;9.48;;;;;;;9.83;100.00;100109.06;5094311;28;20020;-82
2022/10/11 04:20:29;;;;;;;13.85;10.18;;;;;;;9.82;100.00;100109.97;5094320;28;20031;-82
2022/10/11 04:22:54;;;;;;;14.52;9.98;;;;;;;9.87;100.00;100136.66;5093888;28;20403;-82
2022/10/11 04:25:20;;;;;;;16.20;9.10;;;;;;;9.86;100.00;100147.09;5092554;28;20056;-81
2022/10/11 04:27:45;;;;;;;14.55;9.77;;;;;;;9.85;100.00;100148.00;5093643;28;20031;-82
2022/10/11 04:30:11;;;;;;;13.38;9.50;;;;;;;9.84;100.00;100144.56;5092718;28;20114;-82
2022/10/11 04:32:36;;;;;;;16.00;9.93;;;;;;;9.89;100.00;100147.00;5094131;28;20104;-81
2022/10/11 04:35:02;;;;;;;15.90;10.60;;;;;;;9.85;100.00;100143.66;5092278;28;20539;-82
2022/10/11 04:37:27;;;;;;;19.35;10.85;;;;;;;9.87;100.00;100154.03;5093754;28;20024;-82
2022/10/11 04:39:53;;;;;;;12.52;9.77;;;;;;;9.86;100.00;100155.78;5093431;28;20020;-82
2022/10/11 04:42:19;;;;;;;15.43;10.43;;;;;;;9.84;100.00;100151.53;5093906;28;20024;-82
2022/10/11 04:44:44;;;;;;;11.93;9.40;;;;;;;9.87;100.00;100152.28;5093121;28;20028;-82
2022/10/11 04:47:10;;;;;;;15.13;9.68;;;;;;;9.98;100.00;100163.13;5093603;28;20016;-82
2022/10/11 04:49:35;;;;;;;13.25;10.20;;;;;;;9.98;100.00;100152.72;5093579;28;20023;-82
2022/10/11 04:52:01;;;;;;;17.10;10.63;;;;;;;10.06;100.00;100154.19;5093229;28;20107;-82
2022/10/11 04:54:26;;;;;;;13.23;9.57;;;;;;;10.08;100.00;100150.66;5093375;28;20028;-82
2022/10/11 04:56:51;;;;;;;13.07;9.70;;;;;;;10.15;100.00;100159.06;5093246;28;20055;-82
2022/10/11 04:59:17;;;;;;;15.82;10.02;;;;;;;10.26;100.00;100174.34;5093394;28;20366;-82
2022/10/11 05:01:42;;;;;;;13.98;9.85;;;;;;;10.22;100.00;100163.16;5093441;28;20034;-82
2022/10/11 05:04:07;;;;;;;15.00;9.20;;;;;;;10.24;100.00;100172.66;5093116;28;20027;-82
2022/10/11 05:06:33;;;;;;;12.43;9.30;;;;;;;10.31;100.00;100182.81;5093273;28;20040;-82
2022/10/11 05:08:59;;;;;;;18.70;10.10;;;;;;;10.33;100.00;100191.44;5092882;28;20024;-82
2022/10/11 05:11:25;;;;;;;16.35;10.35;;;;;;;10.36;100.00;100202.56;5093124;28;20052;-82
2022/10/11 05:13:50;;;;;;;13.68;9.60;;;;;;;10.32;100.00;100193.16;5092997;28;20058;-82
2022/10/11 05:16:16;;;;;;;16.48;9.75;;;;;;;10.34;100.00;100200.94;5093121;28;20028;-82
2022/10/11 05:18:41;;;;;;;16.13;9.95;;;;;;;10.40;100.00;100209.34;5092889;28;20019;-82
2022/10/11 05:21:19;;;;;;;18.10;9.95;;;;;;;10.37;100.00;100200.84;5092679;28;20027;-82
2022/10/11 05:23:46;;;;;;;16.50;9.25;;;;;;;10.45;100.00;100212.66;5092791;28;20103;-82
2022/10/11 05:26:12;;;;;;;15.05;8.88;;;;;;;10.48;100.00;100227.31;5092949;28;20486;-82
2022/10/11 05:28:37;;;;;;;12.82;8.52;;;;;;;10.37;100.00;100206.03;5092898;28;20016;-82
2022/10/11 05:31:03;;;;;;;17.92;8.80;;;;;;;10.50;100.00;100225.50;5092831;28;20032;-82
2022/10/11 05:33:28;;;;;;;13.45;8.27;;;;;;;10.52;100.00;100234.09;5092837;28;20371;-82
2022/10/11 05:35:54;;;;;;;13.73;8.13;;;;;;;10.52;100.00;100241.06;5092448;28;20028;-82
2022/10/11 05:38:19;;;;;;;12.30;8.10;;;;;;;10.53;100.00;100241.00;5092620;28;20020;-82
2022/10/11 05:40:45;;;;;;;13.70;8.18;;;;;;;10.49;100.00;100236.81;5092774;28;20352;-82
2022/10/11 05:43:10;;;;;;;13.40;9.05;;;;;;;10.51;100.00;100242.00;5092405;28;20074;-83
2022/10/11 05:45:37;;;;;;;11.65;7.63;;;;;;;10.54;100.00;100255.75;5092534;28;20023;-82
2022/10/11 05:48:03;;;;;;;11.50;7.80;;;;;;;10.55;100.00;100254.00;5092195;28;20069;-82
2022/10/11 05:50:29;;;;;;;9.85;7.30;;;;;;;10.53;100.00;100261.84;5092401;28;20020;-82
2022/10/11 05:52:55;;;;;;;14.00;8.05;;;;;;;10.49;100.00;100261.13;5090971;28;20028;-82
2022/10/11 05:55:20;;;;;;;10.40;8.23;;;;;;;10.52;100.00;100257.53;5092097;28;20020;-82
2022/10/11 05:57:45;;;;;;;18.73;8.30;;;;;;;10.55;100.00;100269.63;5092061;28;20355;-82
2022/10/11 06:00:11;;;;;;;14.10;8.07;;;;;;;10.62;100.00;100278.88;5092107;28;20020;-82
2022/10/11 06:02:36;;;;;;;12.45;8.43;;;;;;;10.61;100.00;100278.03;5092262;28;20041;-82
2022/10/11 06:05:02;;;;;;;14.90;8.52;;;;;;;10.65;100.00;100287.44;5091878;28;20186;-82
2022/10/11 06:07:27;;;;;;;17.02;7.40;;;;;;;10.65;100.00;100294.41;5092295;28;20542;-82
2022/10/11 06:09:53;;;;;;;14.02;8.30;;;;;;;10.72;100.00;100293.28;5092081;28;20016;-82
2022/10/11 06:12:20;;;;;;;11.77;8.45;;;;;;;10.74;100.00;100307.09;5092020;28;20056;-82
2022/10/11 06:14:45;;;;;;;14.60;7.13;;;;;;;10.76;100.00;100304.44;5092138;28;20016;-82
2022/10/11 06:17:11;;;;;;;16.33;7.47;;;;;;;10.83;100.00;100317.22;5091754;28;20059;-82
2022/10/11 06:19:36;;;;;;;12.70;7.53;;;;;;;10.97;100.00;100325.34;5092143;28;20047;-82
2022/10/11 06:22:01;;;;;;;12.23;7.35;;;;;;;11.05;100.00;100326.81;5091656;28;20102;-83
2022/10/11 06:24:27;;;;;;;12.55;7.60;;;;;;;11.19;100.00;100324.53;5092301;28;20104;-82
2022/10/11 06:26:53;;;;;;;12.95;7.20;;;;;;;11.62;100.00;100335.88;5091946;28;20099;-82
2022/10/11 06:29:18;;;;;;;12.10;7.10;;;;;;;11.86;100.00;100337.56;5091961;28;20027;-82
2022/10/11 06:31:44;;;;;;;9.23;6.07;;;;;;;11.88;100.00;100343.56;5091947;28;20375;-82
2022/10/11 06:34:09;;;;;;;11.43;7.13;;;;;;;12.12;100.00;100343.44;5091718;28;20478;-82
2022/10/11 06:36:35;;;;;;;10.70;6.53;;;;;;;12.60;100.00;100350.09;5091898;28;20095;-82
2022/10/11 06:39:00;;;;;;;15.18;7.80;;;;;;;13.13;100.00;100347.69;5091702;28;20340;-82
2022/10/11 06:41:27;;;;;;;10.63;6.18;;;;;;;13.73;100.00;100348.38;5090694;28;20440;-82
2022/10/11 06:43:53;;;;;;;12.73;6.50;;;;;;;14.48;96.64;100354.25;5091709;28;20073;-82
2022/10/11 06:46:20;;;;;;;8.20;5.45;;;;;;;14.59;94.62;100356.34;5091860;28;20024;-82
2022/10/11 06:48:47;;;;;;;11.15;6.65;;;;;;;14.97;93.12;100363.06;5090824;28;20024;-82
2022/10/11 06:51:14;;;;;;;9.90;5.30;;;;;;;15.51;90.05;100362.75;5072647;28;20024;-82
2022/10/11 06:53:41;;;;;;;9.40;5.53;;;;;;;15.60;87.69;100372.75;5071857;28;20160;-83
2022/10/11 06:56:11;;;;;;;9.48;4.78;;;;;;;15.77;86.89;100378.88;5071445;28;20085;-83
2022/10/11 06:58:37;;;;;;;;;;;;;;;16.80;85.29;100382.44;5072060;28;20621;-83
2022/10/11 07:01:08;;;;;;;8.98;4.07;;;;;;;17.38;80.30;100383.25;5069998;28;19908;-82
2022/10/11 07:03:34;;;;;;;9.52;4.30;;;;;;;17.16;78.82;100373.22;5071379;28;20025;-82
2022/10/11 07:06:07;;;;;;;10.55;4.30;;;;;;;16.82;79.88;100387.63;5071194;28;20182;-82
2022/10/11 07:08:52;;;;;;;8.73;4.47;;;;;;;17.32;79.08;100381.00;5077005;28;20404;-82
2022/10/11 07:11:23;;;;;;;7.97;4.03;;;;;;;17.59;77.50;100391.59;5075032;28;20020;-83
2022/10/11 07:13:54;;;;;;;7.43;4.10;;;;;;;17.46;77.17;100384.47;5075097;28;20082;-83
2022/10/11 07:16:20;;;;;;;7.30;4.32;;;;;;;17.45;76.75;100392.47;5075309;28;20029;-82
2022/10/11 07:18:47;;;;;;;7.25;4.47;;;;;;;17.03;77.49;100402.09;5075081;28;20519;-83
2022/10/11 07:21:14;;;;;;;7.57;4.00;;;;;;;16.85;76.93;100409.31;5074858;28;20459;-82
2022/10/11 07:23:41;;;;;;;6.82;3.40;;;;;;;16.72;76.76;100405.69;5075018;28;20032;-83
2022/10/11 07:26:07;;;;;;;7.38;3.88;;;;;;;16.44;77.58;100403.88;5074656;28;20065;-83
2022/10/11 07:28:34;;;;;;;6.35;3.00;;;;;;;16.47;76.89;100422.09;5073449;28;20028;-83
2022/10/11 07:31:08;;;;;;;12.07;3.72;;;;;;;16.14;77.39;100424.91;5073495;28;20017;-82
2022/10/11 07:33:33;;;;;;;10.38;3.85;;;;;;;16.35;78.08;100421.03;5074870;28;20025;-83
2022/10/11 07:35:59;;;;;;;7.80;3.75;;;;;;;16.25;76.88;100424.28;5074627;28;20416;-83
2022/10/11 07:38:25;;;;;;;10.73;3.83;;;;;;;15.87;77.90;100429.94;5074652;28;20016;-83
2022/10/11 07:40:50;;;;;;;6.90;3.15;;;;;;;15.68;78.20;100446.72;5074665;28;20486;-83
2022/10/11 07:43:15;;;;;;;6.35;3.65;;;;;;;15.24;78.43;100441.22;5072951;28;20030;-83
2022/10/11 07:45:44;;;;;;;9.68;3.80;;;;;;;14.97;79.87;100435.66;5074807;28;20056;-82
2022/10/11 07:48:10;;;;;;;10.95;3.13;;;;;;;15.09;79.53;100436.78;5074422;28;20023;-83
2022/10/11 07:50:36;;;;;;;10.05;3.50;;;;;;;15.20;79.06;100435.28;5073215;28;20107;-82
2022/10/11 07:53:02;;;;;;;9.10;3.17;;;;;;;15.41;79.20;100437.69;5074212;28;20028;-82
2022/10/11 07:55:29;;;;;;;6.75;3.50;;;;;;;15.45;78.21;100442.69;5074819;28;20016;-82
2022/10/11 07:57:55;;;;;;;8.75;3.42;;;;;;;15.27;78.75;100440.22;5074171;28;20055;-82
2022/10/11 08:00:20;;;;;;;8.82;3.42;;;;;;;15.34;79.09;100457.34;5074266;28;20066;-83
2022/10/11 08:02:46;;;;;;;9.57;3.63;;;;;;;15.40;79.24;100455.22;5074340;28;20099;-82
2022/10/11 08:05:11;;;;;;;9.25;3.42;;;;;;;15.32;78.00;100462.66;5074096;28;20024;-82
2022/10/11 08:07:37;;;;;;;13.85;3.92;;;;;;;15.17;77.84;100459.06;5074078;28;20128;-82
2022/10/11 08:10:04;;;;;;;6.88;3.40;;;;;;;14.91;78.22;100456.94;5073890;28;20111;-82
2022/10/11 08:12:30;;;;;;;10.82;3.20;;;;;;;14.88;78.83;100455.34;5072731;28;20130;-83
2022/10/11 08:14:55;;;;;;;8.70;2.97;;;;;;;15.01;78.75;100465.22;5074159;28;20459;-82
2022/10/11 08:17:21;;;;;;;8.68;3.33;;;;;;;15.26;78.64;100465.63;5072422;28;20371;-82
2022/10/11 08:19:46;;;;;;;9.32;3.67;;;;;;;15.19;77.94;100465.06;5073517;28;20290;-82
2022/10/11 08:22:12;;;;;;;6.18;3.17;;;;;;;15.08;77.91;100466.56;5072415;28;20023;-83
2022/10/11 08:24:37;;;;;;;10.93;3.95;;;;;;;14.89;78.80;100466.69;5073861;28;20363;-83
2022/10/11 08:27:02;;;;;;;12.55;3.63;;;;;;;14.94;78.86;100475.16;5073499;28;20073;-82
2022/10/11 08:29:28;;;;;;;7.30;2.90;;;;;;;15.06;78.48;100460.56;5073870;28;20044;-82
2022/10/11 08:31:53;;;;;;;11.50;3.33;;;;;;;15.23;78.11;100461.38;5073853;28;20046;-83
2022/10/11 08:34:18;;;;;;;9.70;3.08;;;;;;;15.31;78.22;100473.25;5073523;28;20019;-82
2022/10/11 08:36:44;;;;;;;13.13;3.10;;;;;;;15.29;78.32;100469.84;5073536;28;20032;-82
2022/10/11 08:39:09;;;;;;;11.05;3.38;;;;;;;15.24;78.09;100464.84;5073417;28;20103;-82
2022/10/11 08:41:46;;;;;;;9.13;3.63;;;;;;;15.06;77.53;100468.44;5072130;28;20048;-83
2022/10/11 08:44:34;;;;;;;6.13;2.95;;;;;;;15.01;77.86;100470.44;5073315;28;20055;-82
2022/10/11 08:47:11;;;;;;;10.15;3.10;;;;;;;14.76;77.29;100482.19;5073245;28;20036;-82
2022/10/11 08:49:37;;;;;;;11.88;3.22;;;;;;;14.64;76.71;100483.66;5073367;28;20023;-83
2022/10/11 08:52:14;;;;;;;9.65;3.92;;;;;;;14.54;76.86;100482.44;5073279;28;20110;-82
2022/10/11 08:55:03;;;;;;;10.18;3.60;;;;;;;14.44;76.27;100499.47;5073748;28;20366;-82
2022/10/11 08:57:32;;;;;;;10.32;2.70;;;;;;;14.16;76.70;100494.75;5073105;28;20360;-82
2022/10/11 09:00:01;;;;;;;8.50;2.67;;;;;;;14.02;77.71;100491.91;5073100;28;20142;-82
2022/10/11 09:03:04;;;;;;;6.65;2.60;;;;;;;13.97;78.54;100506.09;5072962;28;20111;-82
2022/10/11 09:05:36;;;;;;;9.75;2.90;;;;;;;13.97;79.20;100494.75;5073152;28;20013;-83
2022/10/11 09:08:25;;;;;;;6.20;2.92;;;;;;;14.10;79.92;100508.13;5072707;28;20102;-82
2022/10/11 09:10:56;;;;;;;8.88;2.50;;;;;;;14.26;78.32;100503.84;5072908;28;20028;-82
2022/10/11 09:13:50;;;;;;;12.70;3.38;;;;;;;14.33;77.12;100507.88;5072803;28;20048;-82
2022/10/11 09:16:37;;;;;;;9.23;2.58;;;;;;;14.31;76.38;100506.25;5072700;28;20255;-82
2022/10/11 09:19:24;;;;;;;9.57;3.60;;;;;;;14.31;76.00;100503.63;5072490;28;20429;-82
2022/10/11 09:22:04;;;;;;;9.00;2.70;;;;;;;14.35;76.23;100507.81;5071715;28;20017;-82
2022/10/11 09:24:36;;;;;;;6.90;2.72;;;;;;;14.27;75.87;100509.94;5073107;28;20021;-82
2022/10/11 09:27:13;;;;;;;8.93;3.13;;;;;;;14.16;75.94;100513.09;5072662;28;20027;-82
2022/10/11 09:30:00;;;;;;;7.68;3.05;;;;;;;14.11;75.62;100517.69;5072433;28;20032;-82
2022/10/11 09:32:31;;;;;;;6.75;2.20;;;;;;;14.06;75.71;100506.56;5072049;28;20025;-82
2022/10/11 09:35:18;;;;;;;5.32;2.25;;;;;;;14.23;74.56;100517.09;5072530;28;20040;-82
2022/10/11 09:38:03;;;;;;;9.57;2.80;;;;;;;14.43;74.32;100503.03;5072325;28;20028;-82
2022/10/11 09:40:43;;;;;;;7.78;2.33;;;;;;;14.66;73.85;100504.53;5071211;28;20375;-82
2022/10/11 09:43:09;;;;;;;6.90;2.47;;;;;;;14.67;73.98;100504.47;5072070;28;20533;-82
2022/10/11 09:45:34;;;;;;;8.30;2.50;;;;;;;14.67;74.15;100499.25;5072326;28;20025;-82
2022/10/11 09:48:01;;;;;;;5.60;2.40;;;;;;;14.84;74.23;100511.50;5072265;28;20032;-83
2022/10/11 09:50:29;;;;;;;7.28;2.40;;;;;;;14.94;73.74;100493.50;5071917;28;20078;-82
2022/10/11 09:52:58;;;;;;;7.50;2.33;;;;;;;15.03;71.69;100485.16;5072365;28;20020;-82
2022/10/11 09:55:33;;;;;;;5.70;2.38;;;;;;;15.17;70.31;100495.81;5072045;28;20028;-82
2022/10/11 09:57:59;;;;;;;6.75;2.55;;;;;;;15.10;70.22;100499.66;5072067;28;20028;-82
2022/10/11 10:00:32;;;;;;;5.68;2.25;;;;;;;15.09;70.38;100505.84;5070649;28;20028;-82
2022/10/11 10:03:00;;;;;;;8.73;2.70;;;;;;;14.96;70.70;100491.69;5072079;28;20017;-82
2022/10/11 10:05:26;;;;;;;8.52;2.78;;;;;;;14.92;71.22;100498.00;5072191;28;20032;-82
2022/10/11 10:08:10;;;;;;;9.23;4.10;;;;;;;14.85;71.57;100501.84;5072052;28;20083;-82
2022/10/11 10:10:39;;;;;;;8.23;2.25;;;;;;;14.89;71.50;100506.88;5071992;28;20030;-82
2022/10/11 10:13:28;;;;;;;8.07;2.27;;;;;;;14.84;71.14;100503.63;5071658;28;20035;-82
2022/10/11 10:15:57;;;;;;;11.27;2.88;;;;;;;14.76;70.85;100503.16;5072125;28;20032;-82
2022/10/11 10:18:37;;;;;;;11.40;3.30;;;;;;;14.58;70.81;100498.81;5071730;28;20024;-82
2022/10/11 10:21:07;;;;;;;8.68;3.47;;;;;;;14.47;70.58;100501.97;5071953;28;20044;-82
2022/10/11 10:23:34;;;;;;;;;;;;;;;14.37;71.23;100517.31;5072736;28;20012;-82
2022/10/11 10:26:15;;;;;;;10.82;3.58;;;;;;;14.31;72.03;100509.72;5072224;28;20373;-82
2022/10/11 10:29:03;;;;;;;7.63;2.55;;;;;;;14.34;72.24;100512.19;5071997;28;20158;-82
2022/10/11 10:31:34;;;;;;;8.45;2.85;;;;;;;14.37;71.70;100503.34;4989952;28;20109;-82
2022/10/11 10:34:01;;;;;;;8.30;2.92;;;;;;;14.51;71.74;100503.53;4990090;28;20062;-83
2022/10/11 10:36:31;;;;;;;4.90;2.55;;;;;;;14.68;71.65;100508.78;4989856;28;20049;-82
2022/10/11 10:39:00;;;;;;;;;;;;;;;14.81;71.64;100514.28;4990602;28;20057;-82
2022/10/11 10:41:25;;;;;;;7.03;2.95;;;;;;;14.88;71.24;100505.19;4990038;28;19910;-82
2022/10/11 10:43:54;;;;;;;4.53;2.42;;;;;;;14.75;69.45;100506.72;4994057;28;20124;-82
2022/10/11 10:46:55;;;;;;;6.00;2.45;;;;;;;14.69;69.47;100507.88;4993769;28;20026;-82
2022/10/11 10:49:46;;;;;;;8.07;2.40;;;;;;;14.73;68.98;100514.66;4954973;29;20035;-82
2022/10/11 10:52:30;;;;;;;6.43;2.22;;;;;;;14.85;69.01;100507.09;4954856;29;20051;-82
2022/10/11 10:55:06;;;;;;;10.50;2.83;;;;;;;15.24;68.85;100504.19;4955084;29;20053;-82
2022/10/11 10:57:37;;;;;;;5.07;1.95;;;;;;;15.59;68.02;100510.22;4954711;29;20124;-82
2022/10/11 11:00:18;;;;;;;6.20;2.10;;;;;;;15.84;67.55;100501.03;4954956;29;20441;-82
2022/10/11 11:02:57;;;;;;;6.93;2.17;;;;;;;16.01;67.68;100514.06;4954820;29;20418;-83
2022/10/11 11:05:47;;;;;;;8.80;3.13;;;;;;;16.01;66.26;100506.19;4954657;29;20120;-82
2022/10/11 11:08:30;;;;;;;8.50;2.33;;;;;;;15.88;66.36;100499.91;4975220;28;20052;-83
2022/10/11 11:11:02;;;;;;;6.15;2.55;;;;;;;15.79;66.11;100510.94;5013050;28;20046;-83
2022/10/11 11:13:51;;;;;;;10.23;2.80;;;;;;;15.77;65.08;100511.03;4992889;28;20030;-82
2022/10/11 11:16:36;;;;;;;7.82;2.33;;;;;;;15.80;65.00;100500.38;4993122;28;20038;-82
2022/10/11 11:19:13;;;;;;;6.57;2.63;;;;;;;15.83;64.91;100507.22;4993302;28;20062;-82
2022/10/11 11:21:48;;;;;;;7.65;2.13;;;;;;;15.79;64.96;100489.94;4993355;28;20062;-82
2022/10/11 11:24:16;;;;;;;8.25;2.35;;;;;;;15.88;64.55;100500.75;5061317;28;20033;-82
2022/10/11 11:26:45;;;;;;;7.10;2.92;;;;;;;15.88;64.36;100498.13;5072501;28;20024;-82
2022/10/11 11:29:11;;;;;;;7.38;2.42;;;;;;;15.92;64.04;100506.69;5072280;28;20020;-82
2022/10/11 11:32:06;;;;;;;6.30;2.45;;;;;;;15.86;64.00;100489.50;5072397;28;20070;-82